Time;durP1;ratioP1;P1;durP2;ratioP2;P2;SDS_P1;SDS_P2;PMS_P1;PMS_P2;Temp;Humidity;BMP_temperature;BMP_pressure;BME280_temperature;BME280_humidity;BME280_pressure;Samples;Min_cycle;Max_cycle;Signal;HPM_P1;HPM_P2
2024/02/17 00:00:21;;;;;;;0.20;0.20;;;;;;;8.43;100.00;100078.19;5034320;28;20151;-58
2024/02/17 00:02:50;;;;;;;0.30;0.30;;;;;;;8.27;100.00;100078.59;5038562;28;20052;-59
2024/02/17 00:05:18;;;;;;;0.22;0.22;;;;;;;8.37;100.00;100078.19;5014193;28;20041;-58
2024/02/17 00:07:45;;;;;;;0.30;0.30;;;;;;;8.53;100.00;100076.94;5029182;28;20059;-58
2024/02/17 00:10:12;;;;;;;0.30;0.30;;;;;;;8.61;100.00;100079.41;5038415;28;20445;-58
2024/02/17 00:12:42;;;;;;;0.28;0.28;;;;;;;8.72;100.00;100086.78;5034614;28;20064;-59
2024/02/17 00:15:09;;;;;;;0.23;0.23;;;;;;;8.66;100.00;100090.28;5030507;28;20049;-58
2024/02/17 00:17:37;;;;;;;0.20;0.20;;;;;;;8.68;100.00;100096.25;5039306;28;20682;-58
2024/02/17 00:20:05;;;;;;;0.20;0.20;;;;;;;8.79;100.00;100092.94;5029107;28;20821;-59
2024/02/17 00:22:34;;;;;;;0.30;0.30;;;;;;;8.92;100.00;100097.44;5032983;28;20045;-59
2024/02/17 00:25:01;;;;;;;0.20;0.20;;;;;;;8.75;100.00;100105.06;5036184;28;20041;-59
2024/02/17 00:27:28;;;;;;;0.20;0.20;;;;;;;8.80;100.00;100099.91;5030903;28;20049;-58
2024/02/17 00:29:56;;;;;;;0.20;0.20;;;;;;;8.91;100.00;100111.00;5027812;28;20571;-59
2024/02/17 00:32:23;;;;;;;0.13;0.13;;;;;;;8.82;100.00;100116.56;5031208;28;20033;-58
2024/02/17 00:34:50;;;;;;;0.30;0.30;;;;;;;8.75;100.00;100123.78;5029336;28;20531;-59
2024/02/17 00:37:17;;;;;;;0.30;0.30;;;;;;;8.65;100.00;100126.06;5024808;28;20056;-58
2024/02/17 00:39:46;;;;;;;0.30;0.30;;;;;;;8.49;100.00;100142.53;5030312;28;20044;-57
2024/02/17 00:42:13;;;;;;;0.20;0.20;;;;;;;8.45;100.00;100149.31;5032983;28;20044;-58
2024/02/17 00:44:43;;;;;;;0.25;0.25;;;;;;;8.45;100.00;100154.66;5031474;28;20056;-58
2024/02/17 00:47:10;;;;;;;0.20;0.20;;;;;;;8.42;100.00;100146.00;5027573;28;20069;-58
2024/02/17 00:49:41;;;;;;;0.20;0.20;;;;;;;8.40;100.00;100153.41;5032496;28;20774;-59
2024/02/17 00:52:08;;;;;;;0.20;0.20;;;;;;;8.49;100.00;100156.72;5030191;28;20052;-59
2024/02/17 00:54:35;;;;;;;0.30;0.30;;;;;;;8.44;100.00;100153.84;5034800;28;20039;-59
2024/02/17 00:57:04;;;;;;;0.30;0.30;;;;;;;8.47;100.00;100157.94;5029690;28;20573;-58
2024/02/17 00:59:32;;;;;;;0.30;0.30;;;;;;;8.50;100.00;100152.19;5033868;28;20057;-59
2024/02/17 01:02:01;;;;;;;0.20;0.20;;;;;;;8.57;100.00;100156.50;5029094;28;20121;-59
2024/02/17 01:04:29;;;;;;;0.20;0.20;;;;;;;8.64;100.00;100159.16;5035238;28;20103;-59
2024/02/17 01:06:56;;;;;;;0.20;0.20;;;;;;;8.70;100.00;100161.00;5024771;28;20136;-58
2024/02/17 01:09:24;;;;;;;0.25;0.25;;;;;;;8.74;100.00;100164.91;5039368;28;20042;-58
2024/02/17 01:11:51;;;;;;;0.20;0.20;;;;;;;8.78;100.00;100160.78;5037653;28;20045;-59
2024/02/17 01:14:20;;;;;;;0.28;0.28;;;;;;;8.80;100.00;100165.94;5032141;28;20523;-58
2024/02/17 01:16:47;;;;;;;0.20;0.20;;;;;;;8.82;100.00;100169.22;5035491;28;20132;-59
2024/02/17 01:19:14;;;;;;;0.20;0.20;;;;;;;8.85;100.00;100166.94;5036956;28;20045;-59
2024/02/17 01:21:41;;;;;;;0.28;0.28;;;;;;;8.88;100.00;100175.56;5037113;28;20045;-59
2024/02/17 01:24:09;;;;;;;0.20;0.20;;;;;;;8.85;100.00;100166.94;5038351;28;20047;-58
2024/02/17 01:26:38;;;;;;;0.20;0.20;;;;;;;8.82;100.00;100170.03;5027971;28;20049;-58
2024/02/17 01:29:08;;;;;;;0.30;0.30;;;;;;;8.72;100.00;100172.31;5015053;28;20076;-58
2024/02/17 01:31:37;;;;;;;0.20;0.20;;;;;;;8.60;100.00;100181.97;5032166;28;20056;-59
2024/02/17 01:34:05;;;;;;;0.30;0.30;;;;;;;8.52;100.00;100176.84;5037704;28;20056;-58
2024/02/17 01:36:32;;;;;;;0.20;0.20;;;;;;;8.39;100.00;100181.16;5030156;28;20069;-59
2024/02/17 01:38:59;;;;;;;0.20;0.20;;;;;;;8.39;100.00;100178.50;5033557;28;20136;-59
2024/02/17 01:41:26;;;;;;;0.30;0.30;;;;;;;8.34;100.00;100185.44;5038937;28;20116;-58
2024/02/17 01:43:53;;;;;;;0.30;0.30;;;;;;;8.35;100.00;100182.56;5029435;28;20041;-58
2024/02/17 01:46:20;;;;;;;0.30;0.30;;;;;;;8.32;100.00;100188.31;5034291;28;20049;-59
2024/02/17 01:48:49;;;;;;;0.20;0.20;;;;;;;8.31;100.00;100181.34;5032239;28;20075;-58
2024/02/17 01:51:16;;;;;;;0.20;0.20;;;;;;;8.32;100.00;100188.31;5032144;28;20533;-59
2024/02/17 01:53:43;;;;;;;0.22;0.22;;;;;;;8.39;100.00;100183.84;5034228;28;20123;-58
2024/02/17 01:56:10;;;;;;;0.20;0.20;;;;;;;8.45;100.00;100187.53;5038069;28;20094;-58
2024/02/17 01:58:37;;;;;;;0.20;0.20;;;;;;;8.48;100.00;100181.75;5034044;28;20060;-58
2024/02/17 02:01:06;;;;;;;0.30;0.30;;;;;;;8.48;100.00;100192.44;5040093;28;20060;-58
2024/02/17 02:03:33;;;;;;;0.20;0.20;;;;;;;8.52;100.00;100196.38;5036501;28;20077;-58
2024/02/17 02:06:05;;;;;;;0.20;0.20;;;;;;;8.56;100.00;100202.97;5032097;28;20684;-59
2024/02/17 02:08:32;;;;;;;0.22;0.22;;;;;;;8.45;100.00;100202.75;5034948;28;20053;-59
2024/02/17 02:11:00;;;;;;;0.20;0.20;;;;;;;8.36;100.00;100213.59;5040095;28;20060;-58
2024/02/17 02:13:27;;;;;;;0.20;0.20;;;;;;;8.36;100.00;100210.94;5035047;28;20510;-59
2024/02/17 02:15:56;;;;;;;0.20;0.20;;;;;;;8.39;100.00;100210.53;5035087;28;20137;-59
2024/02/17 02:18:24;;;;;;;0.22;0.22;;;;;;;8.36;100.00;100210.09;5029155;28;20596;-58
2024/02/17 02:20:51;;;;;;;0.30;0.30;;;;;;;8.23;100.00;100210.88;5036725;28;20065;-58
2024/02/17 02:23:20;;;;;;;0.30;0.30;;;;;;;8.12;100.00;100220.31;5028239;28;20812;-58
2024/02/17 02:25:52;;;;;;;0.30;0.30;;;;;;;8.09;100.00;100217.25;5034744;28;20157;-58
2024/02/17 02:28:20;;;;;;;0.22;0.22;;;;;;;8.07;100.00;100213.97;5036316;28;20037;-59
2024/02/17 02:30:47;;;;;;;0.30;0.30;;;;;;;8.03;100.00;100215.38;5034873;28;20474;-58
2024/02/17 02:33:14;;;;;;;0.30;0.30;;;;;;;7.97;100.00;100217.81;5030373;28;21071;-58
2024/02/17 02:35:42;;;;;;;0.20;0.20;;;;;;;7.85;100.00;100218.59;5030775;28;20377;-59
2024/02/17 02:38:09;;;;;;;0.20;0.20;;;;;;;7.75;100.00;100216.31;5037791;28;20123;-58
2024/02/17 02:40:36;;;;;;;0.30;0.30;;;;;;;7.76;100.00;100221.47;5036819;28;20444;-59
2024/02/17 02:43:05;;;;;;;0.30;0.30;;;;;;;7.65;100.00;100218.53;5032166;28;20537;-58
2024/02/17 02:45:33;;;;;;;0.30;0.30;;;;;;;7.67;100.00;100227.16;5020337;28;20045;-58
2024/02/17 02:48:00;;;;;;;0.30;0.30;;;;;;;7.69;100.00;100230.47;5013994;28;20046;-59
2024/02/17 02:50:27;;;;;;;0.28;0.28;;;;;;;7.46;100.00;100236.94;5047281;28;20041;-59
2024/02/17 02:52:55;;;;;;;0.40;0.40;;;;;;;7.47;100.00;100237.75;5030447;28;20136;-58
2024/02/17 02:55:22;;;;;;;0.30;0.30;;;;;;;7.48;100.00;100242.88;5027199;28;20045;-58
2024/02/17 02:57:49;;;;;;;0.28;0.28;;;;;;;7.67;100.00;100249.34;5027212;28;20491;-59
2024/02/17 03:00:18;;;;;;;0.30;0.30;;;;;;;7.84;100.00;100256.97;5036623;28;20174;-58
2024/02/17 03:02:46;;;;;;;0.30;0.30;;;;;;;7.77;100.00;100254.31;5039079;28;20049;-58
2024/02/17 03:05:13;;;;;;;0.30;0.30;;;;;;;7.81;100.00;100260.88;5030038;28;20076;-58
2024/02/17 03:07:40;;;;;;;0.22;0.22;;;;;;;7.52;100.00;100273.47;5020235;28;20131;-59
2024/02/17 03:10:08;;;;;;;0.30;0.30;;;;;;;7.76;100.00;100264.16;5027950;28;20133;-58
2024/02/17 03:12:35;;;;;;;0.25;0.25;;;;;;;7.77;100.00;100268.47;5039775;28;20438;-58
2024/02/17 03:15:04;;;;;;;0.38;0.38;;;;;;;7.83;100.00;100276.69;5032257;28;20073;-59
2024/02/17 03:17:35;;;;;;;0.30;0.30;;;;;;;7.88;100.00;100275.06;5025678;28;20064;-58
2024/02/17 03:20:05;;;;;;;0.20;0.20;;;;;;;7.77;100.00;100275.66;5032379;28;20045;-58
2024/02/17 03:22:33;;;;;;;0.30;0.30;;;;;;;7.89;100.00;100282.06;5031804;28;20484;-59
2024/02/17 03:25:00;;;;;;;0.20;0.20;;;;;;;7.96;100.00;100282.94;5032553;28;20044;-59
2024/02/17 03:27:28;;;;;;;0.30;0.30;;;;;;;8.11;100.00;100287.28;5037901;28;20044;-58
2024/02/17 03:29:55;;;;;;;0.30;0.30;;;;;;;8.10;100.00;100285.63;5038853;28;20688;-59
2024/02/17 03:32:24;;;;;;;0.40;0.40;;;;;;;8.14;100.00;100285.03;5034029;28;20750;-59
2024/02/17 03:34:52;;;;;;;0.20;0.20;;;;;;;8.13;100.00;100286.06;5034229;28;20033;-59
2024/02/17 03:37:21;;;;;;;0.30;0.30;;;;;;;8.13;100.00;100295.91;5024006;28;20257;-58
2024/02/17 03:39:48;;;;;;;0.30;0.30;;;;;;;8.14;100.00;100297.59;5029099;28;20076;-59
2024/02/17 03:42:15;;;;;;;0.28;0.28;;;;;;;8.12;100.00;100294.28;5038794;28;20049;-58
2024/02/17 03:44:43;;;;;;;0.30;0.30;;;;;;;8.16;100.00;100298.19;5034261;28;20048;-59
2024/02/17 03:47:11;;;;;;;0.30;0.30;;;;;;;8.09;100.00;100308.03;5033290;28;21036;-58
2024/02/17 03:49:39;;;;;;;0.25;0.25;;;;;;;8.11;100.00;100303.28;5023224;28;20135;-58
2024/02/17 03:52:08;;;;;;;0.30;0.30;;;;;;;8.15;100.00;100307.22;5034066;28;20045;-58
2024/02/17 03:54:35;;;;;;;0.30;0.30;;;;;;;8.16;100.00;100319.53;5040129;28;20116;-58
2024/02/17 03:57:04;;;;;;;0.20;0.20;;;;;;;8.16;100.00;100323.06;5030468;28;20049;-59
2024/02/17 03:59:34;;;;;;;0.30;0.30;;;;;;;8.09;100.00;100326.72;5032517;28;20045;-59
2024/02/17 04:02:02;;;;;;;0.30;0.30;;;;;;;8.05;100.00;100331.63;5031863;28;20129;-59
2024/02/17 04:04:29;;;;;;;0.30;0.30;;;;;;;8.07;100.00;100332.25;5030614;28;20043;-58
2024/02/17 04:06:56;;;;;;;0.20;0.20;;;;;;;8.10;100.00;100339.03;5037020;28;20048;-59
2024/02/17 04:09:28;;;;;;;0.20;0.20;;;;;;;8.20;100.00;100339.50;5030833;28;20040;-59
2024/02/17 04:11:55;;;;;;;0.32;0.32;;;;;;;8.21;100.00;100343.78;5032308;28;20116;-58
2024/02/17 04:14:22;;;;;;;0.30;0.30;;;;;;;8.26;100.00;100349.38;5031344;28;20053;-59
2024/02/17 04:16:50;;;;;;;0.20;0.20;;;;;;;8.24;100.00;100351.44;5034248;28;20046;-58
2024/02/17 04:19:18;;;;;;;0.30;0.30;;;;;;;8.23;100.00;100355.09;5028562;28;20068;-58
2024/02/17 04:21:45;;;;;;;0.30;0.30;;;;;;;8.20;100.00;100363.53;5025626;28;20067;-59
2024/02/17 04:24:13;;;;;;;0.30;0.30;;;;;;;8.27;100.00;100359.03;5035077;28;20040;-59
2024/02/17 04:26:41;;;;;;;0.20;0.20;;;;;;;8.27;100.00;100361.72;5035462;28;20055;-58
2024/02/17 04:29:09;;;;;;;0.30;0.30;;;;;;;8.26;100.00;100362.72;5031880;28;20048;-58
2024/02/17 04:31:36;;;;;;;0.40;0.40;;;;;;;8.34;100.00;100373.25;5032407;28;20048;-59
2024/02/17 04:34:03;;;;;;;0.30;0.30;;;;;;;8.42;100.00;100370.44;5034184;28;20476;-59
2024/02/17 04:36:30;;;;;;;0.30;0.30;;;;;;;8.38;100.00;100373.66;5032492;28;20095;-58
2024/02/17 04:39:01;;;;;;;0.30;0.30;;;;;;;8.37;100.00;100386.19;5039181;28;20045;-58
2024/02/17 04:41:28;;;;;;;0.20;0.20;;;;;;;8.39;100.00;100381.53;5024883;28;20096;-59
2024/02/17 04:43:56;;;;;;;0.30;0.30;;;;;;;8.35;100.00;100380.22;5034515;28;20733;-58
2024/02/17 04:46:23;;;;;;;0.20;0.20;;;;;;;8.28;100.00;100378.56;5029254;28;20053;-58
2024/02/17 04:48:50;;;;;;;0.20;0.20;;;;;;;8.22;100.00;100390.88;5036180;28;20072;-59
2024/02/17 04:51:18;;;;;;;0.20;0.20;;;;;;;8.23;100.00;100389.00;5029770;28;20033;-59
2024/02/17 04:53:45;;;;;;;0.20;0.20;;;;;;;8.17;100.00;100390.63;5035053;28;20045;-58
2024/02/17 04:56:12;;;;;;;0.25;0.25;;;;;;;8.14;100.00;100385.69;5037676;28;20048;-59
2024/02/17 04:58:41;;;;;;;0.30;0.30;;;;;;;8.13;100.00;100386.72;5036076;28;20056;-59
2024/02/17 05:01:10;;;;;;;0.20;0.20;;;;;;;8.14;100.00;100393.72;5030485;28;20052;-59
2024/02/17 05:03:37;;;;;;;0.20;0.20;;;;;;;8.11;100.00;100400.28;5038875;28;20051;-59
2024/02/17 05:06:05;;;;;;;0.20;0.20;;;;;;;7.95;100.00;100396.06;5034577;28;20045;-58
2024/02/17 05:08:32;;;;;;;0.22;0.22;;;;;;;7.90;100.00;100401.16;5040846;28;20041;-58
2024/02/17 05:10:59;;;;;;;0.30;0.30;;;;;;;7.85;100.00;100394.78;5032945;28;20048;-58
2024/02/17 05:13:26;;;;;;;0.30;0.30;;;;;;;7.89;100.00;100399.53;5032377;28;20492;-58
2024/02/17 05:15:53;;;;;;;0.20;0.20;;;;;;;7.89;100.00;100396.84;5021991;28;20579;-58
2024/02/17 05:18:23;;;;;;;0.20;0.20;;;;;;;7.81;100.00;100401.50;5034942;28;20160;-58
2024/02/17 05:20:50;;;;;;;0.40;0.40;;;;;;;7.89;100.00;100406.72;5021603;28;20051;-58
2024/02/17 05:23:17;;;;;;;0.25;0.25;;;;;;;7.84;100.00;100404.63;5030021;28;20057;-58
2024/02/17 05:25:45;;;;;;;0.30;0.30;;;;;;;7.87;100.00;100411.41;5043039;28;20104;-58
2024/02/17 05:28:12;;;;;;;0.30;0.30;;;;;;;7.83;100.00;100418.97;5041987;28;20152;-59
2024/02/17 05:30:43;;;;;;;0.30;0.30;;;;;;;7.90;100.00;100414.50;5037417;28;20048;-58
2024/02/17 05:33:13;;;;;;;;;;;;;;;7.93;100.00;100414.13;5030651;28;20052;-59
2024/02/17 05:35:42;;;;;;;0.30;0.30;;;;;;;7.87;100.00;100422.91;5033335;28;19932;-58
2024/02/17 05:38:09;;;;;;;0.30;0.30;;;;;;;7.94;100.00;100421.13;5036568;28;20080;-58
2024/02/17 05:40:36;;;;;;;0.30;0.30;;;;;;;7.89;100.00;100428.91;5036762;28;20133;-58
2024/02/17 05:43:04;;;;;;;0.40;0.40;;;;;;;7.92;100.00;100428.50;5026790;28;20045;-59
2024/02/17 05:45:31;;;;;;;0.20;0.20;;;;;;;7.89;100.00;100436.91;5032046;28;20057;-59
2024/02/17 05:48:00;;;;;;;0.30;0.30;;;;;;;7.90;100.00;100440.38;5034055;28;20099;-59
2024/02/17 05:50:28;;;;;;;0.30;0.30;;;;;;;7.94;100.00;100442.47;5030556;28;20123;-59
2024/02/17 05:52:56;;;;;;;0.20;0.20;;;;;;;7.93;100.00;100442.66;5028234;28;20051;-59
2024/02/17 05:55:24;;;;;;;0.20;0.20;;;;;;;7.95;100.00;100444.13;5037957;28;20045;-59
2024/02/17 05:57:51;;;;;;;0.20;0.20;;;;;;;7.93;100.00;100443.47;5038462;28;20048;-58
2024/02/17 06:00:18;;;;;;;0.20;0.20;;;;;;;7.97;100.00;100452.75;5028013;28;20044;-59
2024/02/17 06:02:45;;;;;;;0.30;0.30;;;;;;;8.05;100.00;100453.63;5039150;28;20135;-58
2024/02/17 06:05:13;;;;;;;0.38;0.38;;;;;;;8.06;100.00;100456.09;5037150;28;20051;-58
2024/02/17 06:07:41;;;;;;;0.30;0.30;;;;;;;8.02;100.00;100451.34;5033028;28;20056;-58
2024/02/17 06:10:12;;;;;;;0.30;0.30;;;;;;;8.03;100.00;100461.00;5032000;28;20060;-58
2024/02/17 06:12:39;;;;;;;0.30;0.30;;;;;;;8.00;100.00;100457.69;5034164;28;22027;-58
2024/02/17 06:15:09;;;;;;;0.30;0.30;;;;;;;7.99;100.00;100460.59;5031353;28;20072;-58
2024/02/17 06:17:42;;;;;;;0.30;0.30;;;;;;;8.01;100.00;100458.53;5039343;28;20137;-58
2024/02/17 06:22:56;;;;;;;0.40;0.40;;;;;;;8.11;100.00;100466.19;5030076;28;20065;-58
2024/02/17 06:25:24;;;;;;;0.20;0.20;;;;;;;8.21;100.00;100474.66;5035504;28;20033;-58
2024/02/17 06:27:52;;;;;;;0.32;0.32;;;;;;;8.13;100.00;100482.84;5035485;28;20035;-58
2024/02/17 06:30:19;;;;;;;0.30;0.30;;;;;;;8.14;100.00;100476.50;5030330;28;20142;-59
2024/02/17 06:32:48;;;;;;;0.30;0.30;;;;;;;8.15;100.00;100489.63;5035109;28;20048;-59
2024/02/17 06:35:16;;;;;;;0.20;0.20;;;;;;;8.11;100.00;100488.41;5030500;28;20063;-59
2024/02/17 06:37:43;;;;;;;0.20;0.20;;;;;;;8.16;100.00;100493.13;5033272;28;20051;-58
2024/02/17 06:40:11;;;;;;;0.40;0.40;;;;;;;8.14;100.00;100497.88;5030822;28;20041;-59
2024/02/17 06:42:39;;;;;;;0.30;0.30;;;;;;;8.07;100.00;100505.00;5029339;28;20045;-59
2024/02/17 06:45:16;;;;;;;0.30;0.30;;;;;;;7.95;100.00;100510.84;5034312;28;20045;-59
2024/02/17 06:47:43;;;;;;;0.38;0.38;;;;;;;7.94;100.00;100506.56;5029036;28;20057;-59
2024/02/17 06:50:14;;;;;;;0.25;0.25;;;;;;;7.95;100.00;100510.03;5030458;28;20143;-59
2024/02/17 06:52:41;;;;;;;0.30;0.30;;;;;;;7.80;100.00;100515.47;5036703;28;20056;-59
2024/02/17 06:55:09;;;;;;;0.25;0.25;;;;;;;7.87;100.00;100519.00;5028783;28;20124;-59
2024/02/17 06:57:39;;;;;;;0.25;0.25;;;;;;;7.90;100.00;100526.63;5029007;28;20051;-59
2024/02/17 07:00:07;;;;;;;0.40;0.40;;;;;;;7.98;100.00;100534.50;5037094;28;20037;-59
2024/02/17 07:02:34;;;;;;;0.30;0.30;;;;;;;8.02;100.00;100539.47;5028402;28;20057;-59
2024/02/17 07:05:04;;;;;;;0.30;0.30;;;;;;;8.07;100.00;100535.19;5035873;28;20068;-59
2024/02/17 07:07:31;;;;;;;0.30;0.30;;;;;;;8.13;100.00;100545.09;5028797;28;20049;-59
2024/02/17 07:10:03;;;;;;;0.30;0.30;;;;;;;8.06;100.00;100551.41;5027826;28;20417;-59
2024/02/17 07:12:33;;;;;;;0.30;0.30;;;;;;;8.13;100.00;100561.09;5028459;28;20106;-58
2024/02/17 07:15:02;;;;;;;0.30;0.30;;;;;;;8.23;100.00;100566.09;5034032;28;20127;-58
2024/02/17 07:17:29;;;;;;;0.30;0.30;;;;;;;8.20;100.00;100570.00;5035694;28;20094;-58
2024/02/17 07:19:56;;;;;;;0.30;0.30;;;;;;;8.31;100.00;100571.31;5036530;28;20442;-58
2024/02/17 07:22:23;;;;;;;0.30;0.30;;;;;;;8.32;100.00;100578.31;5032909;28;20053;-59
2024/02/17 07:24:51;;;;;;;0.30;0.30;;;;;;;8.28;100.00;100577.03;5036916;28;20821;-58
2024/02/17 07:27:19;;;;;;;0.30;0.30;;;;;;;8.32;100.00;100580.97;5034093;28;20407;-59
2024/02/17 07:29:46;;;;;;;0.30;0.30;;;;;;;8.32;100.00;100582.84;5028374;28;20050;-59
2024/02/17 07:32:18;;;;;;;0.30;0.30;;;;;;;8.34;100.00;100586.13;5032014;28;20107;-59
2024/02/17 07:34:50;;;;;;;0.22;0.22;;;;;;;8.43;100.00;100601.00;5036644;28;20060;-59
2024/02/17 07:37:19;;;;;;;0.28;0.28;;;;;;;8.32;100.00;100594.34;5033053;28;23303;-59
2024/02/17 07:39:46;;;;;;;0.30;0.30;;;;;;;8.35;100.00;100598.47;5040296;28;20076;-59
2024/02/17 07:42:13;;;;;;;0.22;0.22;;;;;;;8.29;100.00;100600.06;5030812;28;20045;-59
2024/02/17 07:44:44;;;;;;;0.30;0.30;;;;;;;8.41;100.00;100614.59;5027648;28;20123;-59
2024/02/17 07:47:12;;;;;;;0.30;0.30;;;;;;;8.18;100.00;100619.28;5024887;28;20046;-59
2024/02/17 07:49:40;;;;;;;0.30;0.30;;;;;;;7.90;100.00;100625.41;5033170;28;20095;-58
2024/02/17 07:52:08;;;;;;;0.30;0.30;;;;;;;7.89;100.00;100631.78;5024274;28;20699;-59
2024/02/17 07:54:35;;;;;;;0.40;0.40;;;;;;;7.92;100.00;100634.06;5032586;28;20045;-58
2024/02/17 07:57:02;;;;;;;0.22;0.22;;;;;;;7.91;100.00;100637.75;5029738;28;20087;-58
2024/02/17 07:59:29;;;;;;;0.30;0.30;;;;;;;7.89;100.00;100645.13;5051752;28;20107;-58
2024/02/17 08:01:57;;;;;;;0.20;0.20;;;;;;;7.89;100.00;100653.13;5033703;28;20048;-58
2024/02/17 08:04:25;;;;;;;0.25;0.25;;;;;;;7.93;100.00;100653.56;5034872;28;20060;-58
2024/02/17 08:06:54;;;;;;;0.30;0.30;;;;;;;7.94;100.00;100656.06;5033739;28;20046;-58
2024/02/17 08:09:21;;;;;;;0.40;0.40;;;;;;;7.82;100.00;100662.91;5033893;28;20040;-58
2024/02/17 08:11:50;;;;;;;0.40;0.40;;;;;;;7.84;100.00;100660.88;5029800;28;20049;-58
2024/02/17 08:14:17;;;;;;;0.38;0.38;;;;;;;7.69;100.00;100678.78;5026757;28;20099;-58
2024/02/17 08:16:46;;;;;;;0.40;0.40;;;;;;;7.75;100.00;100672.69;5033742;28;20045;-59
2024/02/17 08:19:14;;;;;;;0.40;0.40;;;;;;;7.79;100.00;100673.97;5034479;28;20099;-59
2024/02/17 08:21:41;;;;;;;0.30;0.30;;;;;;;7.69;100.00;100676.94;5035890;28;20072;-59
2024/02/17 08:24:09;;;;;;;0.25;0.25;;;;;;;7.79;100.00;100679.31;5030473;28;20095;-60
2024/02/17 08:26:36;;;;;;;0.40;0.40;;;;;;;7.63;100.00;100683.00;5030762;28;20049;-59
2024/02/17 08:29:04;;;;;;;0.38;0.38;;;;;;;7.64;100.00;100682.00;5035717;28;20045;-59
2024/02/17 08:31:31;;;;;;;0.40;0.40;;;;;;;7.72;100.00;100687.22;5031955;28;20044;-59
2024/02/17 08:33:58;;;;;;;0.40;0.40;;;;;;;7.73;100.00;100694.22;5034260;28;20562;-59
2024/02/17 08:36:25;;;;;;;0.30;0.30;;;;;;;7.73;100.00;100696.06;5037847;28;20048;-59
2024/02/17 08:38:55;;;;;;;0.40;0.40;;;;;;;7.62;100.00;100704.56;5029323;28;20084;-59
2024/02/17 08:41:27;;;;;;;0.38;0.38;;;;;;;7.66;100.00;100711.16;5034759;28;20051;-59
2024/02/17 08:43:54;;;;;;;0.20;0.20;;;;;;;7.77;100.00;100716.84;5031313;28;20053;-59
2024/02/17 08:46:23;;;;;;;0.35;0.35;;;;;;;7.66;100.00;100708.50;5027176;28;20045;-59
2024/02/17 08:48:51;;;;;;;0.30;0.30;;;;;;;7.64;100.00;100716.72;5042845;28;20048;-59
2024/02/17 08:51:18;;;;;;;0.40;0.40;;;;;;;7.79;100.00;100714.00;5008357;28;20385;-58
2024/02/17 08:53:48;;;;;;;0.20;0.20;;;;;;;7.80;100.00;100723.66;5036770;28;20076;-58
2024/02/17 08:56:18;;;;;;;0.30;0.30;;;;;;;7.89;100.00;100722.53;5032566;28;20041;-59
2024/02/17 08:58:46;;;;;;;0.30;0.30;;;;;;;7.86;100.00;100728.25;5035526;28;20820;-58
2024/02/17 09:01:14;;;;;;;0.40;0.40;;;;;;;7.77;100.00;100721.38;5025351;28;20060;-58
2024/02/17 09:03:46;;;;;;;0.35;0.35;;;;;;;7.86;100.00;100722.06;5030119;28;20049;-59
2024/02/17 09:06:13;;;;;;;0.30;0.30;;;;;;;8.02;100.00;100721.84;5031671;28;20034;-59
2024/02/17 09:08:40;;;;;;;0.30;0.30;;;;;;;7.87;100.00;100727.22;5033414;28;20048;-61
2024/02/17 09:11:07;;;;;;;0.28;0.28;;;;;;;8.00;100.00;100732.72;5028025;28;20409;-58
2024/02/17 09:13:34;;;;;;;0.30;0.30;;;;;;;7.98;100.00;100736.59;5029060;28;20072;-59
2024/02/17 09:16:04;;;;;;;0.30;0.30;;;;;;;7.99;100.00;100738.25;5034258;28;20034;-59
2024/02/17 09:18:32;;;;;;;0.30;0.30;;;;;;;7.86;100.00;100743.44;5030222;28;20050;-58
2024/02/17 09:20:59;;;;;;;0.40;0.40;;;;;;;7.95;100.00;100742.31;5026166;28;20137;-58
2024/02/17 09:23:26;;;;;;;0.40;0.40;;;;;;;7.98;100.00;100748.09;5031240;28;20140;-58
2024/02/17 09:25:53;;;;;;;0.28;0.28;;;;;;;7.96;100.00;100755.47;5035616;28;20045;-58
2024/02/17 09:28:20;;;;;;;0.30;0.30;;;;;;;7.98;100.00;100755.28;5031973;28;20102;-59
2024/02/17 09:30:47;;;;;;;0.30;0.30;;;;;;;8.05;100.00;100760.69;5025211;28;20123;-58
2024/02/17 09:33:16;;;;;;;0.40;0.40;;;;;;;8.10;100.00;100760.97;5030241;28;20042;-59
2024/02/17 09:35:43;;;;;;;0.30;0.30;;;;;;;8.09;100.00;100770.00;5034844;28;20124;-58
2024/02/17 09:38:10;;;;;;;0.30;0.30;;;;;;;8.18;100.00;100763.50;5037029;28;20128;-58
2024/02/17 09:40:38;;;;;;;0.40;0.40;;;;;;;8.12;100.00;100769.63;5034695;28;20784;-59
2024/02/17 09:43:05;;;;;;;0.30;0.30;;;;;;;8.16;100.00;100770.88;5036419;28;20087;-58
2024/02/17 09:45:32;;;;;;;0.30;0.30;;;;;;;8.24;100.00;100775.28;5029673;28;20053;-58
2024/02/17 09:47:59;;;;;;;0.20;0.20;;;;;;;8.28;100.00;100784.56;5032529;28;20550;-58
2024/02/17 09:50:28;;;;;;;0.40;0.40;;;;;;;8.32;100.00;100776.00;5031210;28;20038;-58
2024/02/17 09:52:55;;;;;;;0.30;0.30;;;;;;;8.11;100.00;100783.97;5036407;28;20355;-58
2024/02/17 09:55:24;;;;;;;0.30;0.30;;;;;;;8.19;100.00;100776.69;5036209;28;20048;-58
2024/02/17 09:57:51;;;;;;;0.20;0.20;;;;;;;8.31;100.00;100790.38;5030416;28;20037;-58
2024/02/17 10:00:18;;;;;;;0.30;0.30;;;;;;;8.41;100.00;100790.94;5034222;28;20048;-58
2024/02/17 10:02:48;;;;;;;0.40;0.40;;;;;;;8.50;100.00;100796.13;5030051;28;20080;-58
2024/02/17 10:05:16;;;;;;;0.30;0.30;;;;;;;8.47;100.00;100799.19;5027212;28;20689;-59
2024/02/17 10:07:51;;;;;;;0.28;0.28;;;;;;;8.61;100.00;100806.31;5027785;28;20160;-59
2024/02/17 10:10:19;;;;;;;0.30;0.30;;;;;;;8.66;100.00;100813.75;5028798;28;20781;-58
2024/02/17 10:12:50;;;;;;;0.25;0.25;;;;;;;8.73;100.00;100820.00;5036427;28;20045;-58
2024/02/17 10:15:18;;;;;;;0.30;0.30;;;;;;;8.83;100.00;100810.63;5037231;28;20040;-59
2024/02/17 10:17:47;;;;;;;0.40;0.40;;;;;;;8.77;100.00;100822.09;5034629;28;20041;-58
2024/02/17 10:20:14;;;;;;;0.30;0.30;;;;;;;8.91;100.00;100823.06;5030113;28;20045;-59
2024/02/17 10:22:42;;;;;;;0.20;0.20;;;;;;;8.93;100.00;100823.66;5031977;28;20052;-59
2024/02/17 10:25:11;;;;;;;0.30;0.30;;;;;;;8.92;100.00;100831.91;5039055;28;20095;-58
2024/02/17 10:27:39;;;;;;;0.25;0.25;;;;;;;8.77;100.00;100835.47;5034010;28;20118;-58
2024/02/17 10:30:10;;;;;;;0.30;0.30;;;;;;;8.93;100.00;100831.69;5034340;28;20049;-58
2024/02/17 10:32:38;;;;;;;0.30;0.30;;;;;;;8.94;100.00;100837.88;5034520;28;20033;-58
2024/02/17 10:35:07;;;;;;;0.30;0.30;;;;;;;9.11;100.00;100839.28;5035641;28;20037;-58
2024/02/17 10:37:38;;;;;;;0.28;0.28;;;;;;;9.24;100.00;100846.56;5027499;28;20159;-59
2024/02/17 10:40:07;;;;;;;0.30;0.30;;;;;;;9.23;100.00;100842.22;5030892;28;20042;-59
2024/02/17 10:42:36;;;;;;;0.20;0.20;;;;;;;9.38;100.00;100834.09;5031782;28;20064;-59
2024/02/17 10:45:04;;;;;;;0.20;0.20;;;;;;;9.39;100.00;100835.78;5033418;28;20595;-59
2024/02/17 10:47:37;;;;;;;0.22;0.22;;;;;;;9.81;100.00;100836.63;5036954;28;20057;-59
2024/02/17 10:50:06;;;;;;;0.30;0.30;;;;;;;9.63;100.00;100837.97;5030477;28;20076;-59
2024/02/17 10:52:39;;;;;;;0.20;0.20;;;;;;;9.55;100.00;100840.81;5032335;28;20520;-60
2024/02/17 10:55:07;;;;;;;0.28;0.28;;;;;;;9.72;100.00;100838.66;5033975;28;20048;-58
2024/02/17 10:57:45;;;;;;;0.20;0.20;;;;;;;9.75;100.00;100842.78;5029879;28;20051;-58
2024/02/17 11:00:13;;;;;;;0.20;0.20;;;;;;;9.84;100.00;100841.59;5031866;28;20072;-58
2024/02/17 11:02:40;;;;;;;0.30;0.30;;;;;;;9.98;100.00;100840.63;5028580;28;20464;-60
2024/02/17 11:05:08;;;;;;;0.22;0.22;;;;;;;10.01;100.00;100834.03;5026614;28;20056;-60
2024/02/17 11:07:35;;;;;;;0.20;0.20;;;;;;;10.17;100.00;100831.03;5031084;28;20057;-59
2024/02/17 11:10:05;;;;;;;0.20;0.20;;;;;;;10.17;100.00;100830.22;5034890;28;20075;-60
2024/02/17 11:12:33;;;;;;;0.30;0.30;;;;;;;10.21;100.00;100829.59;5031098;28;20049;-59
2024/02/17 11:15:03;;;;;;;0.30;0.30;;;;;;;10.28;100.00;100835.84;5035503;28;20048;-59
2024/02/17 11:17:38;;;;;;;0.20;0.20;;;;;;;10.31;100.00;100834.63;5029034;28;20038;-60
2024/02/17 11:20:07;;;;;;;0.20;0.20;;;;;;;10.62;100.00;100838.63;5037667;28;20041;-59
2024/02/17 11:22:36;;;;;;;0.30;0.30;;;;;;;10.65;100.00;100835.50;5028404;28;20041;-59
2024/02/17 11:25:04;;;;;;;0.20;0.20;;;;;;;10.79;100.00;100838.00;5035432;28;20049;-59
2024/02/17 11:27:33;;;;;;;0.30;0.30;;;;;;;10.80;100.00;100834.28;5033528;28;20181;-60
2024/02/17 11:30:00;;;;;;;0.20;0.20;;;;;;;10.83;100.00;100827.69;5035951;28;20042;-59